createdAt,value
2017-12-15T00:01:18.503Z,60.30
2017-12-15T00:03:46.766Z,60.40
2017-12-15T00:06:14.252Z,60.30
2017-12-15T00:08:41.755Z,60.30
2017-12-15T00:11:09.242Z,60.20
2017-12-15T00:13:37.499Z,60.20
2017-12-15T00:16:05.184Z,60.20
2017-12-15T00:18:33.439Z,60.30
2017-12-15T00:21:00.945Z,60.20
2017-12-15T00:23:28.462Z,60.10
2017-12-15T00:25:55.967Z,60.30
2017-12-15T00:28:23.458Z,60.50
2017-12-15T00:30:50.955Z,61.10
2017-12-15T00:33:19.222Z,61.20
2017-12-15T00:35:46.703Z,61.20
2017-12-15T00:38:14.213Z,61.10
2017-12-15T00:40:41.908Z,61.10
2017-12-15T00:43:10.175Z,61.70
2017-12-15T00:45:37.683Z,61.60
2017-12-15T00:48:05.174Z,61.70
2017-12-15T00:50:32.660Z,61.60
2017-12-15T00:53:00.918Z,61.80
2017-12-15T00:55:28.403Z,61.60
2017-12-15T00:57:56.661Z,61.90
2017-12-15T01:00:24.934Z,62.00
2017-12-15T01:02:52.423Z,61.90
2017-12-15T01:05:19.928Z,62.70
2017-12-15T01:07:47.439Z,62.30
2017-12-15T01:10:14.931Z,62.90
2017-12-15T01:12:42.426Z,63.10
2017-12-15T01:15:10.702Z,63.30
2017-12-15T01:17:38.207Z,63.20
2017-12-15T01:20:05.707Z,64.30
2017-12-15T01:22:33.202Z,63.40
2017-12-15T01:25:00.694Z,63.30
2017-12-15T01:27:28.204Z,63.20
2017-12-15T01:29:56.469Z,63.10
2017-12-15T01:32:23.978Z,63.00
2017-12-15T01:34:51.463Z,62.40
2017-12-15T01:37:18.955Z,62.90
2017-12-15T01:39:47.223Z,63.30
2017-12-15T01:42:15.484Z,63.40
2017-12-15T01:44:42.976Z,63.30
2017-12-15T01:47:11.243Z,63.30
2017-12-15T01:49:39.527Z,63.30
2017-12-15T01:52:07.787Z,63.50
2017-12-15T01:54:36.181Z,63.60
2017-12-15T01:57:04.439Z,63.50
2017-12-15T01:59:31.940Z,63.40
2017-12-15T02:01:59.440Z,63.40
2017-12-15T02:04:26.932Z,63.00
2017-12-15T02:06:55.199Z,63.00
2017-12-15T02:09:22.704Z,62.90
2017-12-15T02:11:50.211Z,63.10
2017-12-15T02:14:18.470Z,63.20
2017-12-15T02:16:45.961Z,63.10
2017-12-15T02:19:14.234Z,63.70
2017-12-15T02:21:42.491Z,63.60
2017-12-15T02:24:09.988Z,63.50
2017-12-15T02:26:37.499Z,63.60
2017-12-15T02:29:04.988Z,63.40
2017-12-15T02:31:32.483Z,63.40
2017-12-15T02:33:59.984Z,63.70
2017-12-15T02:36:28.271Z,64.50
2017-12-15T02:38:56.798Z,63.80
2017-12-15T02:41:24.295Z,63.70
2017-12-15T02:43:51.808Z,63.80
2017-12-15T02:46:19.303Z,64.00
2017-12-15T02:48:46.795Z,64.30
2017-12-15T02:51:15.057Z,64.70
2017-12-15T02:53:43.335Z,64.70
2017-12-15T02:56:11.610Z,65.40
2017-12-15T02:58:39.867Z,65.40
2017-12-15T03:01:07.365Z,65.40
2017-12-15T03:03:34.864Z,65.20
2017-12-15T03:06:02.568Z,65.00
2017-12-15T03:08:30.848Z,64.90
2017-12-15T03:10:59.123Z,64.70
2017-12-15T03:13:27.391Z,64.70
2017-12-15T03:15:55.651Z,64.70
2017-12-15T03:18:23.160Z,64.60
2017-12-15T03:20:50.656Z,64.60
2017-12-15T03:23:18.160Z,64.70
2017-12-15T03:25:46.424Z,64.90
2017-12-15T03:28:14.698Z,65.00
2017-12-15T03:30:42.956Z,65.00
2017-12-15T03:33:10.447Z,65.00
2017-12-15T03:35:38.104Z,65.50
2017-12-15T03:38:06.362Z,65.40
2017-12-15T03:40:33.864Z,65.40
2017-12-15T03:43:01.355Z,65.40
2017-12-15T03:45:29.052Z,65.40
2017-12-15T03:47:57.331Z,65.80
2017-12-15T03:50:25.598Z,65.80
2017-12-15T03:52:53.871Z,66.00
2017-12-15T03:55:21.380Z,65.80
2017-12-15T03:57:48.871Z,65.90
2017-12-15T04:00:16.375Z,66.20
2017-12-15T04:02:43.863Z,66.70
2017-12-15T04:05:11.374Z,66.80
2017-12-15T04:07:39.740Z,67.00
2017-12-15T04:10:08.004Z,67.10
2017-12-15T04:12:35.495Z,67.10
2017-12-15T04:15:02.987Z,66.90
2017-12-15T04:17:30.491Z,66.70
2017-12-15T04:19:58.817Z,66.50
2017-12-15T04:22:27.032Z,66.50
2017-12-15T04:24:54.538Z,66.50
2017-12-15T04:27:22.047Z,66.60
2017-12-15T04:29:51.058Z,69.30
2017-12-15T04:32:19.327Z,68.40
2017-12-15T04:34:46.829Z,68.40
2017-12-15T04:37:14.319Z,68.50
2017-12-15T04:39:41.827Z,68.70
2017-12-15T04:42:10.109Z,68.50
2017-12-15T04:44:37.608Z,68.50
2017-12-15T04:47:05.109Z,68.50
2017-12-15T04:49:33.391Z,68.80
2017-12-15T04:52:01.659Z,68.60
2017-12-15T04:54:29.911Z,68.40
2017-12-15T04:56:57.398Z,68.40
2017-12-15T04:59:25.671Z,67.90
2017-12-15T05:01:53.945Z,67.90
2017-12-15T05:04:22.203Z,67.70
2017-12-15T05:06:49.707Z,67.60
2017-12-15T05:09:17.194Z,67.60
2017-12-15T05:11:44.709Z,67.70
2017-12-15T05:14:12.223Z,67.60
2017-12-15T05:16:39.715Z,67.60
2017-12-15T05:19:08.196Z,67.70
2017-12-15T05:21:36.461Z,68.40
2017-12-15T05:24:04.720Z,68.60
2017-12-15T05:26:32.211Z,68.60
2017-12-15T05:29:00.471Z,71.00
2017-12-15T05:31:28.739Z,72.10
2017-12-15T05:33:56.243Z,72.10
2017-12-15T05:36:23.739Z,72.70
2017-12-15T05:38:51.234Z,72.70
2017-12-15T05:41:19.506Z,73.10
2017-12-15T05:43:47.767Z,74.00
2017-12-15T05:46:15.268Z,74.00
2017-12-15T05:48:42.787Z,74.20
2017-12-15T05:51:10.284Z,73.60
2017-12-15T05:53:37.779Z,73.30
2017-12-15T05:56:05.291Z,73.70
2017-12-15T05:58:32.788Z,75.00
2017-12-15T06:01:00.285Z,76.40
2017-12-15T06:03:28.635Z,76.70
2017-12-15T06:05:56.252Z,76.70
2017-12-15T06:08:23.751Z,76.10
2017-12-15T06:10:51.256Z,75.20
2017-12-15T06:13:19.511Z,73.40
2017-12-15T06:15:47.006Z,73.40
2017-12-15T06:18:14.516Z,73.00
2017-12-15T06:20:42.012Z,72.50
2017-12-15T06:23:09.523Z,72.40
2017-12-15T06:25:37.041Z,72.30
2017-12-15T06:28:04.560Z,72.20
2017-12-15T06:30:32.059Z,72.00
2017-12-15T06:32:59.571Z,71.90
2017-12-15T06:35:27.074Z,71.80
2017-12-15T06:37:54.608Z,71.60
2017-12-15T06:40:22.912Z,71.80
2017-12-15T06:42:51.155Z,71.80
2017-12-15T06:45:19.556Z,71.70
2017-12-15T06:47:47.051Z,71.80
2017-12-15T06:50:14.554Z,72.00
2017-12-15T06:52:42.836Z,71.90
2017-12-15T06:55:11.093Z,71.70
2017-12-15T06:57:38.767Z,71.60
2017-12-15T07:00:07.031Z,71.60
2017-12-15T07:02:34.707Z,71.50
2017-12-15T07:05:02.968Z,73.10
2017-12-15T07:07:30.464Z,73.10
2017-12-15T07:09:57.975Z,73.50
2017-12-15T07:12:25.477Z,74.40
2017-12-15T07:14:52.972Z,75.00
2017-12-15T07:17:20.510Z,76.20
2017-12-15T07:19:48.001Z,76.90
2017-12-15T07:22:15.499Z,77.10
2017-12-15T07:24:43.880Z,78.10
2017-12-15T07:27:12.139Z,78.90
2017-12-15T07:29:40.420Z,78.20
2017-12-15T07:32:08.697Z,78.40
2017-12-15T07:34:36.966Z,78.20
2017-12-15T07:37:05.247Z,78.20
2017-12-15T07:39:33.575Z,77.60
2017-12-15T07:42:01.055Z,77.60
2017-12-15T07:44:28.543Z,77.50
2017-12-15T07:46:56.820Z,76.30
2017-12-15T07:49:25.080Z,75.90
2017-12-15T07:51:53.359Z,75.60
2017-12-15T07:54:20.859Z,75.70
2017-12-15T07:56:48.364Z,75.30
2017-12-15T07:59:16.067Z,74.70
2017-12-15T08:01:43.567Z,74.40
2017-12-15T08:04:11.073Z,73.90
2017-12-15T08:06:39.343Z,73.80
2017-12-15T08:09:07.596Z,73.40
2017-12-15T08:11:35.112Z,73.40
2017-12-15T08:14:02.608Z,73.60
2017-12-15T08:16:30.100Z,73.40
2017-12-15T08:18:58.368Z,74.10
2017-12-15T08:21:26.663Z,74.80
2017-12-15T08:23:54.163Z,74.80
2017-12-15T08:26:21.652Z,74.60
2017-12-15T08:28:49.147Z,74.00
2017-12-15T08:31:16.665Z,74.50
2017-12-15T08:33:44.166Z,73.80
2017-12-15T08:36:11.671Z,73.40
2017-12-15T08:38:39.185Z,73.70
2017-12-15T08:41:06.675Z,73.60
2017-12-15T08:43:34.423Z,73.30
2017-12-15T08:46:01.943Z,73.40
2017-12-15T08:48:30.267Z,73.60
2017-12-15T08:50:57.762Z,73.60
2017-12-15T08:53:26.107Z,73.90
2017-12-15T08:55:53.879Z,73.90
2017-12-15T08:58:21.662Z,73.90
2017-12-15T09:00:49.932Z,74.20
2017-12-15T09:03:17.422Z,74.30
2017-12-15T09:05:45.675Z,73.90
2017-12-15T09:08:13.171Z,73.80
2017-12-15T09:10:40.667Z,75.00
2017-12-15T09:13:08.175Z,73.90
2017-12-15T09:15:35.679Z,73.60
2017-12-15T09:18:03.172Z,73.20
2017-12-15T09:20:31.431Z,71.50
2017-12-15T09:22:58.940Z,71.50
2017-12-15T09:25:26.431Z,70.60
2017-12-15T09:27:53.919Z,70.60
2017-12-15T09:30:21.510Z,69.00
2017-12-15T09:32:49.971Z,66.50
2017-12-15T09:35:18.240Z,65.90
2017-12-15T09:37:46.836Z,64.80
2017-12-15T09:40:15.091Z,64.60
2017-12-15T09:42:42.583Z,64.50
2017-12-15T09:45:10.091Z,64.20
2017-12-15T09:47:37.603Z,63.00
2017-12-15T09:50:05.099Z,63.10
2017-12-15T09:52:32.618Z,61.80
2017-12-15T09:55:00.114Z,61.60
2017-12-15T09:57:27.623Z,61.80
2017-12-15T09:59:55.888Z,61.00
2017-12-15T10:02:24.143Z,60.80
2017-12-15T10:04:52.900Z,60.80
2017-12-15T10:07:20.495Z,59.90
2017-12-15T10:09:47.985Z,59.50
2017-12-15T10:12:16.235Z,59.30
2017-12-15T10:14:43.756Z,59.30
2017-12-15T10:17:11.263Z,59.40
2017-12-15T10:19:39.518Z,59.20
2017-12-15T10:22:07.024Z,59.10
2017-12-15T10:24:34.748Z,59.30
2017-12-15T10:27:02.299Z,59.50
2017-12-15T10:29:31.296Z,57.60
2017-12-15T10:31:58.784Z,57.60
2017-12-15T10:34:27.055Z,56.90
2017-12-15T10:36:55.320Z,56.50
2017-12-15T10:39:23.580Z,57.00
2017-12-15T10:41:51.268Z,57.00
2017-12-15T10:44:19.747Z,57.10
2017-12-15T10:46:48.024Z,57.50
2017-12-15T10:49:16.289Z,57.10
2017-12-15T10:51:44.552Z,57.50
2017-12-15T10:54:12.043Z,57.40
2017-12-15T10:56:40.304Z,57.50
2017-12-15T10:59:08.571Z,57.60
2017-12-15T11:01:36.068Z,57.60
2017-12-15T11:04:03.579Z,57.70
2017-12-15T11:06:31.068Z,57.10
2017-12-15T11:08:59.536Z,56.50
2017-12-15T11:11:27.908Z,55.90
2017-12-15T11:13:56.171Z,56.30
2017-12-15T11:16:23.678Z,56.20
2017-12-15T11:18:51.165Z,55.40
2017-12-15T11:21:18.721Z,55.40
2017-12-15T11:23:46.211Z,54.90
2017-12-15T11:26:13.771Z,55.70
2017-12-15T11:28:41.272Z,56.10
2017-12-15T11:31:08.779Z,56.10
2017-12-15T11:33:37.775Z,55.80
2017-12-15T11:36:05.267Z,55.80
2017-12-15T11:38:33.532Z,56.40
2017-12-15T11:41:01.787Z,56.30
2017-12-15T11:43:29.299Z,56.30
2017-12-15T11:45:56.800Z,55.30
2017-12-15T11:48:24.312Z,55.60
2017-12-15T11:50:51.818Z,55.70
2017-12-15T11:53:19.316Z,55.10
2017-12-15T11:55:46.819Z,55.20
2017-12-15T11:58:14.319Z,54.80
2017-12-15T12:00:42.604Z,54.90
2017-12-15T12:03:11.315Z,55.00
2017-12-15T12:05:41.670Z,54.90
2017-12-15T12:08:09.348Z,55.00
2017-12-15T12:10:36.855Z,55.10
2017-12-15T12:13:04.365Z,55.50
2017-12-15T12:15:32.622Z,55.50
2017-12-15T12:18:00.120Z,55.50
2017-12-15T12:20:28.379Z,55.80
2017-12-15T12:22:56.655Z,55.90
2017-12-15T12:25:24.147Z,55.90
2017-12-15T12:27:51.687Z,56.10
2017-12-15T12:30:19.951Z,56.20
2017-12-15T12:32:47.457Z,56.20
2017-12-15T12:35:14.943Z,56.40
2017-12-15T12:37:42.671Z,56.70
2017-12-15T12:40:11.023Z,56.50
2017-12-15T12:42:39.299Z,56.40
2017-12-15T12:45:07.572Z,57.00
2017-12-15T12:47:35.826Z,56.80
2017-12-15T12:50:03.323Z,56.80
2017-12-15T12:52:30.935Z,56.40
2017-12-15T12:54:58.458Z,56.60
2017-12-15T12:57:25.955Z,56.60
2017-12-15T12:59:53.447Z,57.00
2017-12-15T13:02:21.822Z,57.00
2017-12-15T13:04:50.075Z,56.10
2017-12-15T13:07:18.344Z,56.40
2017-12-15T13:09:45.830Z,56.40
2017-12-15T13:12:14.121Z,56.90
2017-12-15T13:14:42.390Z,57.10
2017-12-15T13:17:10.649Z,57.00
2017-12-15T13:19:38.154Z,57.00
2017-12-15T13:22:05.654Z,56.80
2017-12-15T13:24:33.147Z,57.20
2017-12-15T13:27:00.660Z,57.00
2017-12-15T13:29:28.152Z,57.40
2017-12-15T13:31:56.432Z,57.00
2017-12-15T13:34:24.697Z,57.20
2017-12-15T13:36:52.960Z,57.50
2017-12-15T13:39:20.465Z,57.50
2017-12-15T13:41:47.959Z,57.50
2017-12-15T13:44:15.451Z,57.50
2017-12-15T13:46:43.717Z,57.90
2017-12-15T13:49:11.226Z,57.90
2017-12-15T13:51:38.715Z,57.50
2017-12-15T13:54:06.218Z,57.90
2017-12-15T13:56:34.488Z,58.20
2017-12-15T13:59:02.748Z,58.50
2017-12-15T14:01:30.318Z,58.50
2017-12-15T14:03:58.680Z,58.70
2017-12-15T14:06:26.187Z,58.70
2017-12-15T14:08:53.678Z,58.70
2017-12-15T14:11:21.187Z,59.10
2017-12-15T14:13:48.692Z,59.10
2017-12-15T14:16:16.187Z,59.20
2017-12-15T14:18:44.459Z,59.70
2017-12-15T14:21:12.720Z,59.80
2017-12-15T14:23:40.223Z,59.80
2017-12-15T14:26:07.724Z,59.70
2017-12-15T14:28:35.419Z,59.80
2017-12-15T14:31:03.675Z,60.30
2017-12-15T14:33:31.186Z,60.30
2017-12-15T14:35:58.684Z,60.50
2017-12-15T14:38:26.171Z,60.60
2017-12-15T14:40:54.423Z,60.50
2017-12-15T14:43:22.115Z,60.50
2017-12-15T14:45:50.378Z,60.50
2017-12-15T14:48:18.635Z,60.40
2017-12-15T14:50:46.139Z,60.40
2017-12-15T14:53:13.627Z,60.20
2017-12-15T14:55:41.122Z,60.10
2017-12-15T14:58:08.611Z,60.10
2017-12-15T15:00:36.129Z,60.00
2017-12-15T15:03:04.391Z,60.20
2017-12-15T15:05:31.907Z,60.20
2017-12-15T15:07:59.400Z,60.30
2017-12-15T15:10:26.892Z,60.50
2017-12-15T15:12:54.391Z,60.60
2017-12-15T15:15:21.899Z,60.90
2017-12-15T15:17:49.402Z,61.00
2017-12-15T15:20:16.891Z,61.20
2017-12-15T15:22:44.400Z,61.40
2017-12-15T15:25:12.717Z,61.60
2017-12-15T15:27:40.231Z,61.60
2017-12-15T15:30:08.510Z,61.90
2017-12-15T15:32:36.772Z,61.80
2017-12-15T15:35:04.272Z,61.80
2017-12-15T15:37:31.804Z,61.70
2017-12-15T15:40:00.068Z,61.70
2017-12-15T15:42:28.347Z,61.80
2017-12-15T15:44:56.604Z,61.80
2017-12-15T15:47:24.116Z,61.80
2017-12-15T15:49:51.855Z,61.80
2017-12-15T15:52:20.115Z,61.80
2017-12-15T15:54:47.619Z,61.70
2017-12-15T15:57:15.186Z,61.80
2017-12-15T15:59:42.687Z,62.00
2017-12-15T16:02:10.231Z,62.00
2017-12-15T16:04:37.730Z,62.00
2017-12-15T16:07:05.268Z,61.90
2017-12-15T16:09:32.772Z,62.10
2017-12-15T16:12:00.301Z,62.10
2017-12-15T16:14:27.784Z,62.10
2017-12-15T16:16:55.277Z,61.90
2017-12-15T16:19:22.980Z,62.10
2017-12-15T16:21:51.262Z,62.30
2017-12-15T16:24:19.526Z,62.40
2017-12-15T16:26:47.796Z,62.40
2017-12-15T16:29:16.063Z,63.10
2017-12-15T16:31:43.742Z,62.20
2017-12-15T16:34:12.035Z,62.70
2017-12-15T16:36:39.531Z,62.70
2017-12-15T16:39:07.031Z,62.90
2017-12-15T16:41:35.314Z,63.00
2017-12-15T16:44:03.576Z,63.00
2017-12-15T16:46:31.084Z,63.00
2017-12-15T16:48:58.597Z,63.10
2017-12-15T16:51:26.884Z,63.40
2017-12-15T16:53:55.159Z,63.60
2017-12-15T16:56:23.443Z,63.70
2017-12-15T16:58:51.714Z,63.90
2017-12-15T17:01:19.971Z,64.10
2017-12-15T17:03:47.479Z,64.00
2017-12-15T17:06:14.979Z,64.00
2017-12-15T17:08:42.491Z,64.10
2017-12-15T17:11:10.123Z,64.20
2017-12-15T17:13:38.384Z,64.30
2017-12-15T17:16:05.876Z,64.30
2017-12-15T17:18:33.507Z,64.30
2017-12-15T17:21:01.775Z,64.90
2017-12-15T17:23:29.289Z,64.50
2017-12-15T17:25:56.779Z,64.60
2017-12-15T17:28:24.324Z,64.60
2017-12-15T17:30:51.847Z,64.70
2017-12-15T17:33:19.343Z,64.80
2017-12-15T17:35:46.869Z,64.80
2017-12-15T17:38:14.397Z,64.80
2017-12-15T17:40:42.665Z,64.80
2017-12-15T17:43:10.168Z,64.70
2017-12-15T17:45:37.685Z,64.80
2017-12-15T17:48:05.215Z,64.80
2017-12-15T17:50:32.707Z,64.70
2017-12-15T17:53:00.965Z,64.80
2017-12-15T17:55:28.467Z,64.70
2017-12-15T17:57:55.960Z,64.80
2017-12-15T18:00:23.492Z,65.20
2017-12-15T18:02:50.987Z,65.30
2017-12-15T18:05:18.484Z,65.60
2017-12-15T18:07:46.800Z,66.00
2017-12-15T18:10:14.300Z,65.90
2017-12-15T18:12:41.803Z,66.10
2017-12-15T18:15:09.331Z,66.10
2017-12-15T18:17:37.595Z,66.30
2017-12-15T18:20:06.594Z,66.40
2017-12-15T18:22:35.095Z,66.60
2017-12-15T18:25:02.583Z,66.50
2017-12-15T18:27:30.098Z,66.60
2017-12-15T18:29:58.368Z,66.50
2017-12-15T18:32:26.645Z,66.70
2017-12-15T18:34:54.902Z,66.40
2017-12-15T18:37:22.399Z,66.40
2017-12-15T18:39:49.905Z,66.30
2017-12-15T18:42:17.407Z,66.30
2017-12-15T18:44:45.673Z,66.50
2017-12-15T18:47:13.931Z,66.50
2017-12-15T18:49:41.423Z,66.50
2017-12-15T18:52:08.925Z,66.40
2017-12-15T18:54:36.424Z,66.60
2017-12-15T18:57:04.687Z,66.60
2017-12-15T18:59:32.179Z,66.60
2017-12-15T19:01:59.711Z,66.60
2017-12-15T19:04:27.587Z,66.60
2017-12-15T19:06:55.847Z,66.70
2017-12-15T19:09:23.383Z,66.60
2017-12-15T19:11:50.883Z,66.70
2017-12-15T19:14:19.147Z,67.10
2017-12-15T19:16:46.646Z,67.10
2017-12-15T19:19:14.148Z,67.10
2017-12-15T19:21:41.798Z,67.20
2017-12-15T19:24:09.464Z,67.40
2017-12-15T19:26:37.029Z,67.40
2017-12-15T19:29:04.562Z,67.40
2017-12-15T19:31:32.071Z,67.20
2017-12-15T19:34:00.331Z,67.40
2017-12-15T19:36:27.910Z,67.30
2017-12-15T19:38:56.208Z,67.40
2017-12-15T19:41:23.781Z,67.30
2017-12-15T19:43:51.313Z,67.40
2017-12-15T19:46:18.894Z,67.50
2017-12-15T19:48:46.407Z,67.80
2017-12-15T19:51:14.014Z,67.90
2017-12-15T19:53:42.295Z,68.30
2017-12-15T19:56:09.813Z,68.20
2017-12-15T19:58:38.076Z,68.20
2017-12-15T20:01:05.664Z,68.20
2017-12-15T20:03:33.207Z,68.10
2017-12-15T20:06:00.717Z,68.10
2017-12-15T20:08:28.211Z,68.10
2017-12-15T20:10:55.951Z,68.40
2017-12-15T20:13:23.488Z,68.90
2017-12-15T20:15:51.027Z,68.90
2017-12-15T20:18:19.295Z,68.80
2017-12-15T20:20:46.847Z,68.70
2017-12-15T20:23:14.385Z,68.70
2017-12-15T20:25:41.899Z,68.80
2017-12-15T20:28:09.416Z,68.80
2017-12-15T20:30:36.918Z,69.00
2017-12-15T20:33:04.412Z,69.70
2017-12-15T20:35:31.907Z,69.00
2017-12-15T20:38:00.255Z,68.80
2017-12-15T20:40:27.949Z,68.80
2017-12-15T20:42:56.211Z,68.80
2017-12-15T20:45:24.474Z,68.80
2017-12-15T20:47:51.984Z,68.80
2017-12-15T20:50:19.519Z,68.80
2017-12-15T20:52:47.786Z,69.10
2017-12-15T20:55:16.055Z,69.10
2017-12-15T20:57:43.551Z,69.10
2017-12-15T21:00:11.191Z,69.10
2017-12-15T21:02:39.455Z,69.10
2017-12-15T21:05:07.758Z,69.10
2017-12-15T21:07:35.254Z,69.10
2017-12-15T21:10:02.764Z,69.10
2017-12-15T21:12:31.023Z,69.40
2017-12-15T21:14:59.292Z,69.40
2017-12-15T21:17:26.788Z,69.40
2017-12-15T21:19:54.279Z,69.30
2017-12-15T21:22:21.772Z,69.40
2017-12-15T21:24:49.308Z,69.60
2017-12-15T21:27:16.788Z,69.60
2017-12-15T21:29:44.283Z,69.60
2017-12-15T21:32:11.811Z,69.70
2017-12-15T21:34:40.072Z,69.80
2017-12-15T21:37:07.561Z,69.90
2017-12-15T21:39:35.077Z,70.20
2017-12-15T21:42:02.567Z,71.00
2017-12-15T21:44:31.159Z,71.10
2017-12-15T21:46:59.432Z,70.90
2017-12-15T21:49:27.904Z,70.70
2017-12-15T21:51:56.171Z,70.60
2017-12-15T21:54:23.669Z,70.60
2017-12-15T21:56:51.162Z,70.50
2017-12-15T21:59:18.651Z,70.40
2017-12-15T22:01:46.963Z,70.40
2017-12-15T22:04:14.478Z,70.40
2017-12-15T22:06:41.992Z,70.40
2017-12-15T22:09:09.484Z,70.90
2017-12-15T22:11:36.995Z,70.80
2017-12-15T22:14:04.483Z,70.80
2017-12-15T22:16:31.991Z,70.80
2017-12-15T22:18:59.503Z,70.90
2017-12-15T22:21:27.011Z,71.00
2017-12-15T22:23:55.311Z,71.00
2017-12-15T22:26:22.806Z,71.00
2017-12-15T22:41:59.714Z,70.50
2017-12-15T22:44:27.251Z,70.20
2017-12-15T22:46:55.515Z,71.00
2017-12-15T22:49:23.011Z,70.10
2017-12-15T22:51:50.659Z,70.00
2017-12-15T22:54:18.923Z,70.30
2017-12-15T22:56:47.415Z,70.30
2017-12-15T22:59:15.687Z,70.40
2017-12-15T23:01:43.950Z,70.40
2017-12-15T23:04:11.471Z,70.30
2017-12-15T23:06:38.970Z,70.40
2017-12-15T23:09:06.463Z,70.70
2017-12-15T23:11:33.979Z,70.70
2017-12-15T23:14:01.475Z,70.70
2017-12-15T23:16:28.975Z,70.70
2017-12-15T23:18:56.467Z,70.80
2017-12-15T23:21:24.739Z,70.70
2017-12-15T23:23:52.238Z,70.70
2017-12-15T23:26:19.759Z,70.70
2017-12-15T23:28:48.043Z,71.00
2017-12-15T23:31:16.320Z,71.10
2017-12-15T23:33:44.576Z,71.00
2017-12-15T23:36:12.084Z,71.00
2017-12-15T23:38:39.591Z,71.00
2017-12-15T23:41:07.088Z,70.90
2017-12-15T23:43:34.588Z,70.90
2017-12-15T23:46:02.133Z,71.00
2017-12-15T23:48:29.619Z,71.00
2017-12-15T23:50:57.118Z,71.20
2017-12-15T23:53:24.620Z,71.60
2017-12-15T23:56:03.924Z,71.80
2017-12-15T23:58:31.438Z,71.80
